createdAt,value
2023-02-15T00:01:45.219Z,101357.81
2023-02-15T00:04:15.487Z,101360.53
2023-02-15T00:06:44.497Z,101327.84
2023-02-15T00:09:12.983Z,101352.50
2023-02-15T00:11:50.602Z,101350.53
2023-02-15T00:14:22.067Z,101351.88
2023-02-15T00:16:51.360Z,101340.00
2023-02-15T00:19:21.277Z,101341.88
2023-02-15T00:21:50.881Z,101330.50
2023-02-15T00:24:20.278Z,101346.19
2023-02-15T00:26:49.166Z,101345.66
2023-02-15T00:29:18.898Z,101327.00
2023-02-15T00:31:46.584Z,101344.91
2023-02-15T00:34:16.550Z,101340.31
2023-02-15T00:36:44.568Z,101341.97
2023-02-15T00:39:14.442Z,101329.53
2023-02-15T00:41:42.422Z,101340.88
2023-02-15T00:44:10.676Z,101334.94
2023-02-15T00:46:38.575Z,101333.03
2023-02-15T00:49:06.813Z,101329.00
2023-02-15T00:51:34.748Z,101330.84
2023-02-15T00:54:02.863Z,101340.34
2023-02-15T00:56:32.320Z,101335.97
2023-02-15T00:59:00.037Z,101343.25
2023-02-15T01:01:28.301Z,101339.22
2023-02-15T01:03:56.016Z,101329.75
2023-02-15T01:06:23.786Z,101335.47
2023-02-15T01:08:51.460Z,101331.91
2023-02-15T01:14:12.496Z,101327.97
2023-02-15T01:16:40.276Z,101326.88
2023-02-15T01:19:08.115Z,101329.53
2023-02-15T01:21:36.182Z,101320.16
2023-02-15T01:24:04.682Z,101319.63
2023-02-15T01:26:32.350Z,101323.97
2023-02-15T01:29:00.313Z,101332.09
2023-02-15T01:31:29.340Z,101332.94
2023-02-15T01:33:57.094Z,101324.28
2023-02-15T01:36:24.765Z,101321.59
2023-02-15T01:38:53.321Z,101331.03
2023-02-15T01:41:28.531Z,101320.75
2023-02-15T01:43:57.989Z,101307.53
2023-02-15T01:46:35.375Z,101310.75
2023-02-15T01:49:11.032Z,101308.88
2023-02-15T01:51:41.750Z,101305.66
2023-02-15T01:54:13.128Z,101305.63
2023-02-15T01:56:43.033Z,101304.84
2023-02-15T01:59:16.757Z,101311.31
2023-02-15T02:01:46.364Z,101308.59
2023-02-15T02:04:19.380Z,101302.09
2023-02-15T02:06:50.342Z,101313.44
2023-02-15T02:09:18.041Z,101311.81
2023-02-15T02:11:48.557Z,101302.81
2023-02-15T02:14:17.305Z,101306.38
2023-02-15T02:16:55.771Z,101295.56
2023-02-15T02:19:53.207Z,101298.78
2023-02-15T02:22:54.412Z,101293.88
2023-02-15T02:25:54.379Z,101289.81
2023-02-15T02:28:48.131Z,101295.47
2023-02-15T02:31:34.562Z,101290.06
2023-02-15T02:34:07.983Z,101284.38
2023-02-15T02:36:43.207Z,101284.38
2023-02-15T02:39:28.411Z,101284.63
2023-02-15T02:42:02.701Z,101281.41
2023-02-15T02:44:37.175Z,101279.72
2023-02-15T02:47:13.870Z,101275.66
2023-02-15T02:49:44.718Z,101274.34
2023-02-15T02:52:37.653Z,101271.06
2023-02-15T02:55:08.929Z,101262.13
2023-02-15T02:57:42.572Z,101268.44
2023-02-15T03:00:11.535Z,101258.84
2023-02-15T03:02:43.297Z,101269.75
2023-02-15T03:05:18.377Z,101272.69
2023-02-15T03:07:51.984Z,101271.94
2023-02-15T03:10:22.723Z,101261.91
2023-02-15T03:12:53.706Z,101261.09
2023-02-15T03:15:24.101Z,101257.56
2023-02-15T03:17:57.588Z,101242.97
2023-02-15T03:20:31.804Z,101248.41
2023-02-15T03:23:07.620Z,101256.50
2023-02-15T03:25:40.661Z,101266.22
2023-02-15T03:28:11.432Z,101265.44
2023-02-15T03:30:42.084Z,101267.31
2023-02-15T03:33:11.842Z,101259.78
2023-02-15T03:35:47.503Z,101260.25
2023-02-15T03:38:22.629Z,101261.69
2023-02-15T03:41:08.648Z,101262.75
2023-02-15T03:43:44.102Z,101276.03
2023-02-15T03:46:18.397Z,101268.66
2023-02-15T03:48:50.082Z,101278.72
2023-02-15T03:51:37.424Z,101281.97
2023-02-15T03:54:08.651Z,101277.69
2023-02-15T03:56:38.794Z,101267.91
2023-02-15T03:59:24.254Z,101269.81
2023-02-15T04:02:01.502Z,101279.53
2023-02-15T04:04:35.266Z,101263.28
2023-02-15T04:07:06.660Z,101262.75
2023-02-15T04:09:52.202Z,101244.59
2023-02-15T04:12:20.131Z,101262.09
2023-02-15T04:15:05.236Z,101261.31
2023-02-15T04:17:32.927Z,101258.13
2023-02-15T04:20:18.272Z,101258.94
2023-02-15T04:23:04.854Z,101254.91
2023-02-15T04:25:32.546Z,101251.19
2023-02-15T04:28:00.218Z,101250.63
2023-02-15T04:30:28.377Z,101257.09
2023-02-15T04:32:58.008Z,101256.88
2023-02-15T04:35:26.655Z,101257.06
2023-02-15T04:37:56.685Z,101251.66
2023-02-15T04:40:24.429Z,101251.44
2023-02-15T04:42:52.212Z,101247.13
2023-02-15T04:45:19.938Z,101246.81
2023-02-15T04:47:47.779Z,101241.66
2023-02-15T04:50:15.511Z,101240.88
2023-02-15T04:52:43.209Z,101233.84
2023-02-15T04:55:12.223Z,101236.03
2023-02-15T04:57:39.972Z,101231.44
2023-02-15T05:00:09.930Z,101235.75
2023-02-15T05:02:37.776Z,101242.00
2023-02-15T05:05:05.713Z,101233.63
2023-02-15T05:07:33.361Z,101229.78
2023-02-15T05:10:01.051Z,101235.22
2023-02-15T05:12:30.027Z,101226.59
2023-02-15T05:14:57.634Z,101225.78
2023-02-15T05:17:25.751Z,101223.06
2023-02-15T05:19:53.441Z,101229.81
2023-02-15T05:22:21.175Z,101227.38
2023-02-15T05:25:06.595Z,101233.56
2023-02-15T05:27:53.070Z,101226.25
2023-02-15T05:30:21.008Z,101230.78
2023-02-15T05:32:48.794Z,101237.06
2023-02-15T05:35:17.686Z,101229.50
2023-02-15T05:37:45.445Z,101229.72
2023-02-15T05:40:13.658Z,101237.59
2023-02-15T05:42:42.746Z,101231.94
2023-02-15T05:45:10.802Z,101241.41
2023-02-15T05:47:38.556Z,101240.59
2023-02-15T05:50:07.504Z,101236.81
2023-02-15T05:52:35.393Z,101239.22
2023-02-15T05:55:03.583Z,101247.03
2023-02-15T05:57:31.250Z,101244.91
2023-02-15T06:00:00.248Z,101242.47
2023-02-15T06:02:27.881Z,101251.34
2023-02-15T06:04:55.525Z,101242.66
2023-02-15T06:07:23.126Z,101254.31
2023-02-15T06:09:50.757Z,101246.72
2023-02-15T06:12:18.441Z,101255.38
2023-02-15T06:14:46.134Z,101246.78
2023-02-15T06:17:15.291Z,101251.91
2023-02-15T06:19:42.966Z,101250.28
2023-02-15T06:22:10.576Z,101243.00
2023-02-15T06:24:38.211Z,101242.94
2023-02-15T06:27:05.913Z,101240.56
2023-02-15T06:29:33.534Z,101238.38
2023-02-15T06:32:01.271Z,101242.94
2023-02-15T06:34:30.475Z,101245.66
2023-02-15T06:36:58.295Z,101250.63
2023-02-15T06:39:26.076Z,101261.69
2023-02-15T06:41:53.736Z,101274.72
2023-02-15T06:44:21.432Z,101242.00
2023-02-15T06:46:49.165Z,101278.94
2023-02-15T06:49:16.895Z,101278.16
2023-02-15T06:51:45.871Z,101270.00
2023-02-15T06:54:13.585Z,101272.75
2023-02-15T06:56:41.226Z,101274.88
2023-02-15T06:59:08.850Z,101270.78
2023-02-15T07:01:37.919Z,101267.28
2023-02-15T07:04:05.965Z,101281.09
2023-02-15T07:06:33.970Z,101282.94
2023-02-15T07:09:03.007Z,101278.06
2023-02-15T07:11:48.539Z,101279.16
2023-02-15T07:14:16.282Z,101279.41
2023-02-15T07:16:43.954Z,101271.00
2023-02-15T07:19:11.862Z,101278.06
2023-02-15T07:21:39.544Z,101271.50
2023-02-15T07:24:08.796Z,101194.91
2023-02-15T07:26:36.476Z,101263.69
2023-02-15T07:29:04.191Z,101265.31
2023-02-15T07:31:32.068Z,101265.03
2023-02-15T07:33:59.791Z,101269.63
2023-02-15T07:36:27.489Z,101267.84
2023-02-15T07:38:55.125Z,101272.16
2023-02-15T07:41:24.491Z,101276.75
2023-02-15T07:43:52.148Z,101284.00
2023-02-15T07:46:21.578Z,101281.22
2023-02-15T07:48:49.908Z,101265.00
2023-02-15T07:51:17.611Z,101265.59
2023-02-15T07:53:45.640Z,101256.78
2023-02-15T07:56:15.290Z,101257.50
2023-02-15T07:58:53.180Z,101255.16
2023-02-15T08:01:23.288Z,101259.16
2023-02-15T08:03:51.749Z,101257.81
2023-02-15T08:06:19.711Z,101253.00
2023-02-15T08:08:47.415Z,101260.81
2023-02-15T08:11:29.924Z,101237.19
2023-02-15T08:14:01.231Z,101259.53
2023-02-15T08:16:31.670Z,101246.97
2023-02-15T08:19:00.787Z,101252.53
2023-02-15T08:21:30.438Z,101234.44
2023-02-15T08:23:58.981Z,101255.34
2023-02-15T08:26:28.035Z,101260.53
2023-02-15T08:28:56.196Z,101258.34
2023-02-15T08:31:25.530Z,101254.66
2023-02-15T08:33:55.766Z,101254.81
2023-02-15T08:36:25.427Z,101240.31
2023-02-15T08:38:53.354Z,101238.88
2023-02-15T08:41:22.911Z,101243.22
2023-02-15T08:43:54.516Z,101241.31
2023-02-15T08:46:23.438Z,101233.03
2023-02-15T08:48:53.399Z,101236.56
2023-02-15T08:51:22.595Z,101236.69
2023-02-15T08:53:51.877Z,101239.69
2023-02-15T08:56:21.186Z,101233.88
2023-02-15T08:58:48.984Z,101235.41
2023-02-15T09:01:20.851Z,101222.63
2023-02-15T09:03:50.669Z,101225.56
2023-02-15T09:06:19.677Z,101219.50
2023-02-15T09:08:47.420Z,101214.69
2023-02-15T09:11:23.164Z,101209.41
2023-02-15T09:13:53.485Z,101191.66
2023-02-15T09:16:22.542Z,101214.47
2023-02-15T09:18:51.283Z,101216.81
2023-02-15T09:21:22.570Z,101213.19
2023-02-15T09:23:53.020Z,101215.81
2023-02-15T09:26:22.780Z,101211.00
2023-02-15T09:28:56.400Z,101214.38
2023-02-15T09:31:26.827Z,101205.72
2023-02-15T09:33:55.394Z,101205.72
2023-02-15T09:36:26.186Z,101206.59
2023-02-15T09:38:58.187Z,101195.28
2023-02-15T09:41:46.873Z,101192.09
2023-02-15T09:44:25.340Z,101197.72
2023-02-15T09:47:10.845Z,101207.78
2023-02-15T09:49:45.900Z,101204.84
2023-02-15T09:52:36.714Z,101199.19
2023-02-15T09:55:23.268Z,101209.19
2023-02-15T09:58:03.432Z,101206.75
2023-02-15T10:00:43.531Z,101199.75
2023-02-15T10:03:25.782Z,101202.34
2023-02-15T10:06:07.591Z,101204.53
2023-02-15T10:09:07.468Z,101207.47
2023-02-15T10:11:50.926Z,101204.38
2023-02-15T10:14:45.376Z,101206.25
2023-02-15T10:17:26.855Z,101211.75
2023-02-15T10:20:06.697Z,101214.13
2023-02-15T10:22:44.415Z,101211.50
2023-02-15T10:25:30.937Z,101225.50
2023-02-15T10:28:04.168Z,101230.69
2023-02-15T10:30:43.815Z,101228.25
2023-02-15T10:33:21.071Z,101239.28
2023-02-15T10:36:01.682Z,101238.19
2023-02-15T10:38:39.213Z,101234.59
2023-02-15T10:41:25.143Z,101239.06
2023-02-15T10:44:12.540Z,101233.19
2023-02-15T10:47:02.882Z,101229.66
2023-02-15T10:49:48.048Z,101235.75
2023-02-15T10:52:32.042Z,101242.88
2023-02-15T10:55:09.875Z,101236.56
2023-02-15T10:57:51.015Z,101235.69
2023-02-15T11:00:23.463Z,101238.47
2023-02-15T11:03:07.626Z,101238.09
2023-02-15T11:05:43.595Z,101228.91
2023-02-15T11:08:13.255Z,101226.75
2023-02-15T11:10:44.964Z,101224.50
2023-02-15T11:13:18.782Z,101218.13
2023-02-15T11:15:51.098Z,101210.09
2023-02-15T11:18:27.312Z,101216.78
2023-02-15T11:20:58.702Z,101200.97
2023-02-15T11:23:28.220Z,101195.41
2023-02-15T11:25:59.865Z,101194.94
2023-02-15T11:28:35.097Z,101195.38
2023-02-15T11:31:13.593Z,101181.44
2023-02-15T11:33:47.326Z,101181.25
2023-02-15T11:36:19.415Z,101172.19
2023-02-15T11:38:51.004Z,101170.19
2023-02-15T11:41:25.073Z,101169.28
2023-02-15T11:43:59.560Z,101163.47
2023-02-15T11:46:27.444Z,101161.97
2023-02-15T11:48:55.282Z,101157.91
2023-02-15T11:51:24.704Z,101160.03
2023-02-15T11:53:53.550Z,101159.22
2023-02-15T11:56:24.037Z,101158.41
2023-02-15T11:58:58.784Z,101153.19
2023-02-15T12:01:32.750Z,101163.34
2023-02-15T12:04:04.898Z,101159.84
2023-02-15T12:06:36.110Z,101146.63
2023-02-15T12:09:09.367Z,101148.03
2023-02-15T12:11:39.240Z,101143.06
2023-02-15T12:14:11.195Z,101137.88
2023-02-15T12:16:48.449Z,101135.09
2023-02-15T12:19:30.745Z,101137.28
2023-02-15T12:22:00.252Z,101131.13
2023-02-15T12:24:30.788Z,101125.91
2023-02-15T12:27:02.534Z,101092.91
2023-02-15T12:29:37.173Z,101130.53
2023-02-15T12:32:05.504Z,101121.84
2023-02-15T12:34:40.371Z,101120.84
2023-02-15T12:37:16.812Z,101113.09
2023-02-15T12:39:54.699Z,101118.69
2023-02-15T12:42:22.805Z,101118.69
2023-02-15T12:44:59.163Z,101105.03
2023-02-15T12:47:29.251Z,101110.19
2023-02-15T12:50:26.896Z,101106.91
2023-02-15T12:53:08.921Z,101102.19
2023-02-15T12:55:37.592Z,101105.84
2023-02-15T12:58:16.359Z,101094.16
2023-02-15T13:00:46.686Z,101071.66
2023-02-15T13:03:20.434Z,101080.06
2023-02-15T13:05:51.600Z,101098.22
2023-02-15T13:08:22.450Z,101095.09
2023-02-15T13:10:56.604Z,101093.19
2023-02-15T13:13:27.375Z,101087.00
2023-02-15T13:16:00.662Z,101077.38
2023-02-15T13:18:33.517Z,101068.97
2023-02-15T13:21:11.524Z,101068.75
2023-02-15T13:23:41.792Z,101067.16
2023-02-15T13:26:14.855Z,101071.44
2023-02-15T13:28:46.457Z,101073.47
2023-02-15T13:31:19.327Z,101068.06
2023-02-15T13:33:51.270Z,101080.00
2023-02-15T13:36:29.187Z,101073.13
2023-02-15T13:39:17.490Z,101060.09
2023-02-15T13:41:58.433Z,101062.56
2023-02-15T13:44:43.584Z,101054.75
2023-02-15T13:47:23.559Z,101047.06
2023-02-15T13:50:10.250Z,101037.63
2023-02-15T13:52:48.357Z,101026.19
2023-02-15T13:55:28.374Z,101027.25
2023-02-15T13:58:15.888Z,101032.16
2023-02-15T14:00:49.851Z,101033.66
2023-02-15T14:03:45.969Z,101033.06
2023-02-15T14:06:29.582Z,101030.19
2023-02-15T14:09:13.356Z,101033.50
2023-02-15T14:11:50.423Z,101030.03
2023-02-15T14:14:33.759Z,101025.63
2023-02-15T14:17:10.264Z,101019.38
2023-02-15T14:19:46.845Z,101013.41
2023-02-15T14:22:25.045Z,101013.97
2023-02-15T14:25:07.976Z,101010.25
2023-02-15T14:27:53.170Z,101015.88
2023-02-15T14:30:23.337Z,100999.94
2023-02-15T14:32:54.926Z,101030.25
2023-02-15T14:35:28.800Z,100998.44
2023-02-15T14:38:02.563Z,101023.97
2023-02-15T14:40:57.940Z,101028.94
2023-02-15T14:43:35.853Z,101025.75
2023-02-15T14:46:10.791Z,101022.72
2023-02-15T14:48:44.525Z,101019.19
2023-02-15T14:51:52.228Z,101016.13
2023-02-15T14:54:56.944Z,101010.38
2023-02-15T14:57:34.742Z,100987.88
2023-02-15T15:00:25.929Z,101006.13
2023-02-15T15:02:55.426Z,101000.97
2023-02-15T15:05:30.206Z,100998.38
2023-02-15T15:08:00.286Z,100992.28
2023-02-15T15:10:47.842Z,100994.75
2023-02-15T15:13:39.095Z,100993.50
2023-02-15T15:16:27.698Z,101001.66
2023-02-15T15:18:56.095Z,101008.13
2023-02-15T15:21:56.153Z,101000.19
2023-02-15T15:24:53.272Z,100996.03
2023-02-15T15:27:51.652Z,100999.59
2023-02-15T15:31:02.081Z,100999.09
2023-02-15T15:34:16.339Z,100998.31
2023-02-15T15:37:32.648Z,100994.28
2023-02-15T15:40:40.053Z,101006.44
2023-02-15T15:43:47.859Z,101001.78
2023-02-15T15:46:32.869Z,101012.19
2023-02-15T15:49:03.566Z,101014.41
2023-02-15T15:51:34.106Z,101006.59
2023-02-15T15:54:04.113Z,101001.06
2023-02-15T15:56:35.490Z,100999.19
2023-02-15T15:59:07.964Z,101003.91
2023-02-15T16:01:41.550Z,100990.94
2023-02-15T16:04:14.498Z,101002.69
2023-02-15T16:06:42.855Z,100991.44
2023-02-15T16:09:18.305Z,101008.31
2023-02-15T16:11:47.464Z,101008.06
2023-02-15T16:14:19.226Z,101008.88
2023-02-15T16:16:53.398Z,101008.97
2023-02-15T16:19:26.121Z,101017.72
2023-02-15T16:21:54.729Z,101024.38
2023-02-15T16:24:43.440Z,101011.34
2023-02-15T16:27:24.777Z,101019.34
2023-02-15T16:29:53.865Z,100957.66
2023-02-15T16:32:24.186Z,101012.53
2023-02-15T16:34:57.063Z,101009.00
2023-02-15T16:37:28.099Z,101011.00
2023-02-15T16:39:57.062Z,100976.97
2023-02-15T16:42:26.036Z,101014.50
2023-02-15T16:45:03.645Z,101009.69
2023-02-15T16:47:35.430Z,100997.91
2023-02-15T16:50:06.108Z,101008.13
2023-02-15T16:52:34.217Z,101003.63
2023-02-15T16:55:03.996Z,101005.69
2023-02-15T16:57:36.786Z,101004.06
2023-02-15T17:00:09.124Z,101011.03
2023-02-15T17:02:55.024Z,101015.53
2023-02-15T17:05:24.406Z,101015.59
2023-02-15T17:08:06.576Z,101018.72
2023-02-15T17:10:37.184Z,101015.88
2023-02-15T17:13:11.598Z,101012.19
2023-02-15T17:15:42.638Z,101015.88
2023-02-15T17:18:17.446Z,101014.03
2023-02-15T17:20:46.873Z,101011.31
2023-02-15T17:23:27.634Z,101005.81
2023-02-15T17:25:55.736Z,101011.50
2023-02-15T17:28:26.315Z,101011.59
2023-02-15T17:30:56.987Z,101007.94
2023-02-15T17:33:29.945Z,100997.19
2023-02-15T17:36:09.744Z,101000.75
2023-02-15T17:38:39.167Z,101008.22
2023-02-15T17:41:07.221Z,101007.50
2023-02-15T17:43:34.855Z,101012.31
2023-02-15T17:46:04.043Z,101018.34
2023-02-15T17:48:34.147Z,101022.97
2023-02-15T17:51:03.807Z,101019.47
2023-02-15T17:53:32.265Z,101022.72
2023-02-15T17:55:59.009Z,101019.81
2023-02-15T17:58:26.753Z,101019.50
2023-02-15T18:01:15.829Z,101020.41
2023-02-15T18:04:05.858Z,101019.28
2023-02-15T18:06:51.966Z,101026.78
2023-02-15T18:09:39.056Z,101021.66
2023-02-15T18:12:20.347Z,101020.63
2023-02-15T18:14:48.175Z,101020.00
2023-02-15T18:17:17.385Z,101015.19
2023-02-15T18:19:47.619Z,101019.09
2023-02-15T18:22:17.882Z,101017.72
2023-02-15T18:24:46.287Z,101014.72
2023-02-15T18:27:15.174Z,101006.34
2023-02-15T18:29:43.289Z,101006.94
2023-02-15T18:32:18.699Z,100998.34
2023-02-15T18:34:49.400Z,100985.03
2023-02-15T18:37:20.584Z,100998.75
2023-02-15T18:39:49.378Z,101001.97
2023-02-15T18:42:21.774Z,100999.75
2023-02-15T18:44:50.162Z,100999.59
2023-02-15T18:47:17.827Z,101003.94
2023-02-15T18:49:45.458Z,101008.03
2023-02-15T18:52:17.652Z,101021.06
2023-02-15T18:54:46.157Z,101010.06
2023-02-15T18:57:15.806Z,101011.59
2023-02-15T18:59:44.030Z,101018.47
2023-02-15T19:02:14.382Z,101009.66
2023-02-15T19:04:42.633Z,101015.53
2023-02-15T19:07:18.806Z,101008.97
2023-02-15T19:09:49.088Z,101001.50
2023-02-15T19:12:17.104Z,101004.19
2023-02-15T19:14:44.921Z,100996.84
2023-02-15T19:17:16.501Z,100990.31
2023-02-15T19:19:44.497Z,100987.31
2023-02-15T19:22:14.878Z,100981.50
2023-02-15T19:24:46.551Z,100973.22
2023-02-15T19:27:22.436Z,100972.53
2023-02-15T19:29:50.953Z,100940.03
2023-02-15T19:32:18.823Z,100975.06
2023-02-15T19:34:46.440Z,100971.38
2023-02-15T19:37:23.997Z,100963.53
2023-02-15T19:39:53.693Z,100978.88
2023-02-15T19:42:24.293Z,100963.28
2023-02-15T19:44:54.337Z,100982.22
2023-02-15T19:47:22.816Z,100968.91
2023-02-15T19:49:50.596Z,100982.91
2023-02-15T19:52:20.439Z,100983.06
2023-02-15T19:54:49.550Z,100989.34
2023-02-15T19:57:19.294Z,100938.56
2023-02-15T19:59:47.051Z,100992.97
2023-02-15T20:02:15.724Z,100989.34
2023-02-15T20:04:43.532Z,100992.88
2023-02-15T20:07:19.979Z,100983.38
2023-02-15T20:09:47.749Z,100998.16
2023-02-15T20:12:21.806Z,100988.28
2023-02-15T20:14:49.497Z,100994.56
2023-02-15T20:17:17.232Z,100992.66
2023-02-15T20:19:46.057Z,100981.38
2023-02-15T20:22:21.648Z,100990.66
2023-02-15T20:24:49.324Z,100990.44
2023-02-15T20:27:20.918Z,100998.44
2023-02-15T20:29:50.316Z,100986.53
2023-02-15T20:32:18.139Z,100988.38
2023-02-15T20:34:45.857Z,100981.38
2023-02-15T20:37:22.468Z,100983.53
2023-02-15T20:39:50.125Z,100979.34
2023-02-15T20:42:19.857Z,100981.56
2023-02-15T20:44:47.687Z,100976.47
2023-02-15T20:47:15.308Z,100977.81
2023-02-15T20:49:42.968Z,100983.47
2023-02-15T20:52:20.017Z,100992.19
2023-02-15T20:54:47.939Z,100991.59
2023-02-15T20:57:16.545Z,101000.44
2023-02-15T20:59:46.115Z,101003.88
2023-02-15T21:02:18.840Z,100963.81
2023-02-15T21:04:47.509Z,101001.25
2023-02-15T21:07:15.900Z,100994.28
2023-02-15T21:09:43.564Z,101004.25
2023-02-15T21:12:14.506Z,101007.81
2023-02-15T21:14:42.397Z,101010.00
2023-02-15T21:17:13.814Z,101008.41
2023-02-15T21:19:41.611Z,101015.66
2023-02-15T21:22:12.881Z,101012.47
2023-02-15T21:24:45.490Z,101021.09
2023-02-15T21:27:14.020Z,101011.13
2023-02-15T21:29:41.663Z,101015.47
2023-02-15T21:32:10.928Z,101011.16
2023-02-15T21:34:40.876Z,101013.88
2023-02-15T21:37:26.512Z,101015.53
2023-02-15T21:39:54.327Z,101006.88
2023-02-15T21:42:35.964Z,101009.91
2023-02-15T21:45:21.845Z,101001.25
2023-02-15T21:47:52.341Z,101006.88
2023-02-15T21:50:41.342Z,101005.72
2023-02-15T21:53:13.611Z,100997.59
2023-02-15T21:55:41.318Z,101005.19
2023-02-15T21:58:19.318Z,100990.75
2023-02-15T22:00:47.040Z,100990.66
2023-02-15T22:03:14.775Z,100989.22
2023-02-15T22:05:43.860Z,100993.22
2023-02-15T22:08:14.006Z,100988.34
2023-02-15T22:10:43.038Z,100992.72
2023-02-15T22:13:15.464Z,100964.44
2023-02-15T22:15:43.503Z,100994.63
2023-02-15T22:18:21.486Z,100985.59
2023-02-15T22:20:50.708Z,100994.97
2023-02-15T22:23:18.370Z,100995.75
2023-02-15T22:25:50.345Z,100997.94
2023-02-15T22:28:18.104Z,100990.16
2023-02-15T22:30:46.394Z,100982.88
2023-02-15T22:33:24.466Z,100990.44
2023-02-15T22:35:53.533Z,100987.19
2023-02-15T22:38:21.277Z,100985.59
2023-02-15T22:40:50.740Z,100982.63
2023-02-15T22:43:28.814Z,100985.66
2023-02-15T22:46:00.473Z,100984.59
2023-02-15T22:48:28.597Z,100976.75
2023-02-15T22:50:57.960Z,100980.25
2023-02-15T22:53:25.692Z,100979.19
2023-02-15T22:55:53.988Z,100992.19
2023-02-15T22:58:24.671Z,100988.72
2023-02-15T23:00:52.703Z,101002.53
2023-02-15T23:03:23.074Z,100993.66
2023-02-15T23:05:51.341Z,101000.94
2023-02-15T23:08:20.291Z,100996.16
2023-02-15T23:10:54.335Z,100993.16
2023-02-15T23:13:26.132Z,100980.31
2023-02-15T23:15:57.421Z,100988.16
2023-02-15T23:18:28.663Z,100981.97
2023-02-15T23:20:58.799Z,100978.19
2023-02-15T23:23:33.988Z,100968.22
2023-02-15T23:26:04.194Z,100973.03
2023-02-15T23:28:36.203Z,100977.88
2023-02-15T23:31:10.640Z,100967.91
2023-02-15T23:33:38.384Z,100967.94
2023-02-15T23:36:06.402Z,100972.28
2023-02-15T23:38:35.466Z,100965.28
2023-02-15T23:41:18.998Z,100960.97
2023-02-15T23:43:49.952Z,100958.53
2023-02-15T23:46:30.653Z,100965.59
2023-02-15T23:48:58.381Z,100971.22
2023-02-15T23:51:30.538Z,100963.94
2023-02-15T23:53:59.683Z,100968.28
2023-02-15T23:56:27.405Z,100965.34
2023-02-15T23:58:55.541Z,100979.97
